Time;durP1;ratioP1;P1;durP2;ratioP2;P2;SDS_P1;SDS_P2;PMS_P1;PMS_P2;Temp;Humidity;BMP_temperature;BMP_pressure;BME280_temperature;BME280_humidity;BME280_pressure;Samples;Min_cycle;Max_cycle;Signal;HPM_P1;HPM_P2
2022/12/02 00:02:33;;;;;;;;;52.00;40.33;;;;;7.45;79.75;99429.22;5010241;28;45449;-78
2022/12/02 00:05:14;;;;;;;;;54.67;44.67;;;;;7.45;79.53;99421.34;4999375;28;45461;-78
2022/12/02 00:07:40;;;;;;;;;51.00;43.00;;;;;7.44;79.55;99417.88;5010827;28;45669;-78
2022/12/02 00:10:26;;;;;;;;;50.67;41.67;;;;;7.45;79.29;99416.97;5000727;28;47123;-77
2022/12/02 00:12:52;;;;;;;;;53.67;44.00;;;;;7.45;79.46;99413.47;5001482;28;45408;-77
2022/12/02 00:15:40;;;;;;;;;57.00;45.67;;;;;7.45;79.47;99410.84;5005418;28;45411;-78
2022/12/02 00:18:06;;;;;;;;;51.00;43.33;;;;;7.43;79.33;99403.03;5020964;28;45405;-78
2022/12/02 00:20:31;;;;;;;;;54.00;42.67;;;;;7.44;79.54;99409.13;5007321;28;45971;-76
2022/12/02 00:22:57;;;;;;;;;47.67;41.00;;;;;7.44;79.34;99402.13;5008794;28;45437;-77
2022/12/02 00:25:22;;;;;;;;;56.33;44.33;;;;;7.44;79.22;99399.50;5004483;28;45397;-76
2022/12/02 00:27:47;;;;;;;;;55.00;45.00;;;;;7.42;79.17;99400.44;5006515;28;45362;-77
2022/12/02 00:30:13;;;;;;;;;54.67;41.00;;;;;7.42;79.20;99405.69;5006629;28;45552;-76
2022/12/02 00:32:38;;;;;;;;;48.33;40.67;;;;;7.41;79.06;99403.94;5009366;28;45479;-76
2022/12/02 00:35:04;;;;;;;;;48.67;40.33;;;;;7.39;78.68;99397.88;5010134;28;45736;-76
2022/12/02 00:37:30;;;;;;;;;53.67;42.00;;;;;7.38;78.90;99397.00;5006831;28;45547;-76
2022/12/02 00:39:55;;;;;;;;;47.67;40.67;;;;;7.39;78.73;99390.00;5010396;28;45484;-76
2022/12/02 00:42:20;;;;;;;;;49.00;41.67;;;;;7.40;78.95;99391.72;4995722;28;45515;-76
2022/12/02 00:47:30;;;;;;;;;53.33;41.67;;;;;7.39;78.89;99384.75;4997166;28;45477;-76
2022/12/02 00:49:55;;;;;;;;;51.33;42.00;;;;;7.41;78.85;99390.84;5008863;28;45433;-76
2022/12/02 00:52:20;;;;;;;;;54.67;42.67;;;;;7.39;78.82;99377.75;5030341;28;45521;-76
2022/12/02 00:54:46;;;;;;;;;53.00;40.67;;;;;7.39;78.82;99384.75;5011603;28;45615;-76
2022/12/02 00:57:11;;;;;;;;;46.00;38.67;;;;;7.39;79.20;99383.00;5000473;28;45500;-76
2022/12/02 00:59:36;;;;;;;;;53.00;39.67;;;;;7.39;79.37;99383.00;4999490;28;45516;-77
2022/12/02 01:02:02;;;;;;;;;48.67;39.00;;;;;7.38;79.06;99381.28;5003257;28;45468;-76
2022/12/02 01:04:27;;;;;;;;;55.33;42.00;;;;;7.39;79.12;99382.13;5006328;28;45357;-76
2022/12/02 01:06:52;;;;;;;;;51.67;43.33;;;;;7.39;78.79;99377.75;5006334;28;45332;-76
2022/12/02 01:09:18;;;;;;;;;58.33;44.33;;;;;7.38;78.60;99375.16;5001614;28;46584;-77
2022/12/02 01:11:43;;;;;;;;;56.00;40.67;;;;;7.38;78.81;99383.88;5006013;28;45541;-76
2022/12/02 01:14:09;;;;;;;;;54.00;44.00;;;;;7.37;78.71;99373.47;4996669;28;45406;-77
2022/12/02 01:16:34;;;;;;;;;52.00;42.00;;;;;7.38;78.68;99380.41;5005915;28;45325;-77
2022/12/02 01:18:59;;;;;;;;;59.67;47.33;;;;;7.37;78.73;99379.56;5000222;28;46498;-76
2022/12/02 01:21:25;;;;;;;;;56.00;43.33;;;;;7.39;78.78;99371.66;4997626;28;45377;-76
2022/12/02 01:23:50;;;;;;;;;56.67;44.00;;;;;7.39;78.30;99376.88;5003907;28;45417;-76
2022/12/02 01:26:16;;;;;;;;;58.67;46.33;;;;;7.37;78.45;99384.81;4999901;28;45464;-76
2022/12/02 01:28:41;;;;;;;;;51.67;43.00;;;;;7.37;78.33;99384.81;5012018;28;45453;-75
2022/12/02 01:31:06;;;;;;;;;54.33;41.33;;;;;7.37;78.18;99384.81;5005482;28;45419;-76
2022/12/02 01:33:32;;;;;;;;;53.00;44.33;;;;;7.37;78.15;99376.09;5038754;28;45526;-76
2022/12/02 01:35:57;;;;;;;;;53.00;43.00;;;;;7.37;78.20;99382.19;5003896;28;45563;-77
2022/12/02 01:38:22;;;;;;;;;52.33;40.67;;;;;7.33;77.98;99381.41;5008562;28;45568;-76
2022/12/02 01:40:48;;;;;;;;;51.33;39.67;;;;;7.32;78.17;99379.66;5005340;28;45358;-76
2022/12/02 01:43:14;;;;;;;;;54.33;44.00;;;;;7.33;78.12;99384.03;5002272;28;45403;-76
2022/12/02 01:45:39;;;;;;;;;53.67;44.00;;;;;7.32;78.26;99381.44;5012526;28;45333;-76
2022/12/02 01:48:05;;;;;;;;;57.00;44.33;;;;;7.32;78.40;99384.91;4999272;28;45499;-76
2022/12/02 01:50:31;;;;;;;;;53.67;38.33;;;;;7.32;78.68;99374.44;5004390;28;45415;-76
2022/12/02 01:52:56;;;;;;;;;56.67;43.67;;;;;7.33;79.05;99381.41;5012988;28;45362;-77
2022/12/02 01:55:24;;;;;;;;;52.67;43.33;;;;;7.31;78.88;99375.31;4994032;28;45550;-76
2022/12/02 01:57:50;;;;;;;;;54.67;43.33;;;;;7.29;79.08;99379.72;5004044;28;46224;-76
2022/12/02 02:00:16;;;;;;;;;56.67;46.00;;;;;7.28;79.22;99385.00;5005928;28;45410;-76
2022/12/02 02:02:43;;;;;;;;;46.00;39.67;;;;;7.26;79.48;99386.81;5006901;28;45395;-77
2022/12/02 02:05:12;;;;;;;;;57.33;46.33;;;;;7.27;79.53;99385.91;5021244;28;45769;-76
2022/12/02 02:07:39;;;;;;;;;61.33;49.00;;;;;7.25;79.67;99379.84;5046521;28;46254;-76
2022/12/02 02:10:05;;;;;;;;;49.33;41.33;;;;;7.23;79.68;99387.72;5004034;28;46007;-76
2022/12/02 02:12:31;;;;;;;;;56.00;45.00;;;;;7.23;79.72;99387.72;5010481;28;45511;-76
2022/12/02 02:14:57;;;;;;;;;59.33;45.00;;;;;7.24;79.75;99388.59;5006545;28;45453;-76
2022/12/02 02:17:23;;;;;;;;;54.33;42.00;;;;;7.23;79.98;99386.88;5011828;28;46370;-76
2022/12/02 02:19:49;;;;;;;;;53.00;43.00;;;;;7.22;79.72;99386.00;5012802;28;45496;-76
2022/12/02 02:22:20;;;;;;;;;54.67;41.33;;;;;7.23;79.79;99386.88;5014181;28;45476;-77
2022/12/02 02:24:46;;;;;;;;;54.33;43.67;;;;;7.22;79.93;99385.13;5013279;28;45435;-76
2022/12/02 02:27:11;;;;;;;;;52.67;43.00;;;;;7.24;80.22;99383.34;4997611;28;46185;-78
2022/12/02 02:29:37;;;;;;;;;51.33;42.00;;;;;7.23;80.23;99386.88;5000560;28;45475;-78
2022/12/02 02:32:02;;;;;;;;;50.00;42.33;;;;;7.20;80.39;99382.59;5004368;28;45611;-78
2022/12/02 02:34:28;;;;;;;;;57.67;45.00;;;;;7.19;80.47;99374.75;5007952;28;45407;-77
2022/12/02 02:36:54;;;;;;;;;58.00;45.00;;;;;7.18;80.33;99383.50;5034292;28;47100;-76
2022/12/02 02:39:21;;;;;;;;;55.33;46.33;;;;;7.17;80.07;99377.41;5001959;28;45488;-77
2022/12/02 02:41:47;;;;;;;;;53.00;42.00;;;;;7.16;80.38;99380.91;5008197;28;45560;-76
2022/12/02 02:44:13;;;;;;;;;53.00;42.00;;;;;7.16;80.22;99375.66;5003762;28;46086;-77
2022/12/02 02:46:39;;;;;;;;;55.00;42.33;;;;;7.15;80.31;99373.94;5010193;28;45760;-77
2022/12/02 02:49:04;;;;;;;;;44.33;40.00;;;;;7.14;80.22;99372.22;5009238;28;45504;-76
2022/12/02 02:51:30;;;;;;;;;56.33;45.00;;;;;7.10;80.19;99367.94;5013919;28;45430;-76
2022/12/02 02:53:55;;;;;;;;;56.67;45.00;;;;;7.11;80.18;99364.41;5012295;28;45491;-76
2022/12/02 02:56:20;;;;;;;;;59.33;45.67;;;;;7.10;80.28;99361.81;5004489;28;46436;-76
2022/12/02 02:58:46;;;;;;;;;55.33;46.00;;;;;7.09;80.32;99354.84;5014252;28;45339;-77
2022/12/02 03:01:22;;;;;;;;;50.67;40.33;;;;;7.06;80.15;99355.78;5004169;28;45377;-76
2022/12/02 03:03:54;;;;;;;;;58.67;47.33;;;;;7.05;80.30;99356.69;5035849;28;45733;-76
2022/12/02 03:06:22;;;;;;;;;52.67;42.00;;;;;7.03;80.52;99353.25;5007281;28;48802;-76
2022/12/02 03:08:48;;;;;;;;;58.00;45.67;;;;;7.01;80.73;99347.19;5013019;28;45577;-77
2022/12/02 03:11:14;;;;;;;;;66.67;53.33;;;;;7.00;80.56;99350.69;5008646;28;45512;-77
2022/12/02 03:13:43;;;;;;;;;57.67;46.67;;;;;6.98;80.87;99358.59;5012909;28;46175;-77
2022/12/02 03:16:13;;;;;;;;;58.33;45.33;;;;;6.99;80.91;99356.84;5003802;28;46473;-76
2022/12/02 03:18:43;;;;;;;;;56.00;45.00;;;;;6.98;80.79;99355.09;5032819;28;45501;-77
2022/12/02 03:21:09;;;;;;;;;57.00;45.00;;;;;6.97;81.30;99354.25;4994915;28;45385;-77
2022/12/02 03:23:35;;;;;;;;;56.67;41.67;;;;;6.97;81.30;99349.00;5011056;28;45397;-76
2022/12/02 03:26:02;;;;;;;;;56.33;42.00;;;;;6.96;81.24;99359.50;5003132;28;45469;-77
2022/12/02 03:28:28;;;;;;;;;54.33;45.33;;;;;6.94;81.12;99358.69;5002518;28;45419;-77
2022/12/02 03:30:54;;;;;;;;;55.33;43.33;;;;;6.92;81.10;99350.84;5004190;28;45430;-77
2022/12/02 03:33:20;;;;;;;;;45.67;40.00;;;;;6.89;81.08;99353.53;5004680;28;45499;-77
2022/12/02 03:35:45;;;;;;;;;46.67;38.67;;;;;6.89;81.13;99353.53;5008636;28;46426;-77
2022/12/02 03:38:11;;;;;;;;;47.33;40.33;;;;;6.90;81.34;99357.00;5005762;28;45473;-77
2022/12/02 03:40:36;;;;;;;;;55.67;44.00;;;;;6.88;80.99;99354.41;5011862;28;45361;-77
2022/12/02 03:43:02;;;;;;;;;62.00;45.33;;;;;6.88;80.98;99349.19;5008318;28;45366;-77
2022/12/02 03:45:28;;;;;;;;;66.50;50.50;;;;;6.90;81.08;99352.63;5013022;28;45377;-77
2022/12/02 03:47:54;;;;;;;;;59.67;48.00;;;;;6.89;80.81;99342.19;5013241;28;45391;-77
2022/12/02 03:50:20;;;;;;;;;63.33;49.33;;;;;6.86;81.05;99344.91;5021900;28;45414;-77
2022/12/02 03:52:47;;;;;;;;;62.33;46.33;;;;;6.86;80.87;99340.53;4995242;28;45441;-77
2022/12/02 03:55:12;;;;;;;;;61.67;49.67;;;;;6.86;81.02;99340.53;5002814;28;45569;-77
2022/12/02 03:57:39;;;;;;;;;56.33;45.00;;;;;6.87;81.02;99341.38;5002149;28;45739;-77
2022/12/02 04:00:05;;;;;;;;;59.67;48.33;;;;;6.87;80.94;99334.34;5005707;28;45414;-77
2022/12/02 04:02:31;;;;;;;;;56.00;47.00;;;;;6.88;80.90;99335.22;5002803;28;45492;-77
2022/12/02 04:04:56;;;;;;;;;56.33;45.00;;;;;6.89;80.89;99339.56;5005627;28;46190;-77
2022/12/02 04:07:22;;;;;;;;;51.33;41.00;;;;;6.89;80.75;99340.41;5007957;28;45511;-77
2022/12/02 04:09:47;;;;;;;;;54.67;41.00;;;;;6.88;80.67;99333.47;5009605;28;45942;-77
2022/12/02 04:12:12;;;;;;;;;45.67;39.33;;;;;6.88;80.90;99332.59;5007240;28;45429;-77
2022/12/02 04:14:38;;;;;;;;;46.67;36.00;;;;;6.88;81.01;99333.47;5007790;28;45667;-77
2022/12/02 04:17:03;;;;;;;;;51.67;42.00;;;;;6.85;80.86;99330.94;5010291;28;45378;-77
2022/12/02 04:19:28;;;;;;;;;47.33;38.33;;;;;6.83;80.76;99319.63;5011653;28;45579;-77
2022/12/02 04:21:54;;;;;;;;;42.33;37.67;;;;;6.84;80.79;99329.19;5012099;28;45366;-77
2022/12/02 04:24:19;;;;;;;;;53.67;42.00;;;;;6.82;80.90;99320.50;5006167;28;46162;-77
2022/12/02 04:26:45;;;;;;;;;40.67;34.67;;;;;6.82;80.71;99322.25;5015214;28;45388;-77
2022/12/02 04:29:10;;;;;;;;;47.67;40.33;;;;;6.81;80.70;99324.03;4997733;28;45379;-77
2022/12/02 04:31:35;;;;;;;;;42.00;38.67;;;;;6.82;80.90;99327.50;5032782;28;45808;-77
2022/12/02 04:34:01;;;;;;;;;48.67;40.67;;;;;6.84;80.71;99313.47;5010956;28;45492;-77
2022/12/02 04:36:26;;;;;;;;;41.67;37.67;;;;;6.83;80.77;99310.88;5034077;28;45405;-77
2022/12/02 04:38:51;;;;;;;;;50.00;42.33;;;;;6.84;80.57;99310.84;5006027;28;45436;-77
2022/12/02 04:41:17;;;;;;;;;46.33;36.67;;;;;6.82;80.21;99311.78;5004233;28;45635;-77
2022/12/02 04:43:42;;;;;;;;;47.33;39.00;;;;;6.79;80.39;99311.84;5009111;28;45604;-77
2022/12/02 04:46:07;;;;;;;;;45.67;38.67;;;;;6.78;80.63;99310.13;5001634;28;45449;-77
2022/12/02 04:48:33;;;;;;;;;45.33;35.67;;;;;6.79;80.98;99312.72;5011109;28;45545;-77
2022/12/02 04:50:58;;;;;;;;;53.00;41.33;;;;;6.80;80.79;99305.72;5025336;28;45530;-77
2022/12/02 04:53:24;;;;;;;;;51.00;37.33;;;;;6.80;80.43;99309.19;5012822;28;45507;-77
2022/12/02 04:55:49;;;;;;;;;46.00;38.33;;;;;6.81;80.65;99307.44;5015943;28;45635;-77
2022/12/02 04:58:14;;;;;;;;;52.00;41.00;;;;;6.80;80.71;99310.94;4998311;28;45470;-77
2022/12/02 05:00:40;;;;;;;;;43.33;37.67;;;;;6.80;80.88;99296.09;5007822;28;45606;-77
2022/12/02 05:03:06;;;;;;;;;45.00;39.67;;;;;6.80;80.64;99301.34;5012883;28;45637;-76
2022/12/02 05:05:31;;;;;;;;;45.67;39.00;;;;;6.80;80.68;99303.09;5029552;28;45663;-77
2022/12/02 05:07:57;;;;;;;;;42.67;38.33;;;;;6.78;80.46;99302.25;5008434;28;45475;-77
2022/12/02 05:10:22;;;;;;;;;51.00;39.33;;;;;6.75;80.24;99291.84;5002317;28;45662;-77
2022/12/02 05:12:47;;;;;;;;;50.33;37.67;;;;;6.74;80.14;99297.97;5010163;28;46439;-77
2022/12/02 05:15:13;;;;;;;;;44.00;37.33;;;;;6.75;80.18;99299.69;5010629;28;45310;-77
2022/12/02 05:17:38;;;;;;;;;44.67;37.67;;;;;6.73;80.26;99296.25;5013842;28;45314;-77
2022/12/02 05:20:05;;;;;;;;;41.00;34.00;;;;;6.74;80.18;99301.47;5007992;28;45337;-77
2022/12/02 05:22:30;;;;;;;;;49.33;40.00;;;;;6.74;80.04;99305.84;5031581;28;47943;-77
2022/12/02 05:24:55;;;;;;;;;51.00;41.33;;;;;6.74;80.24;99301.47;5001916;28;45421;-76
2022/12/02 05:27:21;;;;;;;;;42.67;37.33;;;;;6.74;80.20;99297.97;4997604;28;45427;-78
2022/12/02 05:29:46;;;;;;;;;39.00;33.67;;;;;6.73;80.25;99302.34;4999501;28;45374;-79
2022/12/02 05:32:12;;;;;;;;;46.00;36.00;;;;;6.71;80.16;99306.75;5000915;28;45587;-76
2022/12/02 05:34:37;;;;;;;;;51.00;40.33;;;;;6.70;80.33;99312.06;5000678;28;45405;-77
2022/12/02 05:37:02;;;;;;;;;40.00;37.33;;;;;6.68;80.55;99305.97;5005994;28;45379;-76
2022/12/02 05:39:28;;;;;;;;;46.33;40.67;;;;;6.65;80.82;99307.78;5009999;28;45582;-76
2022/12/02 05:41:59;;;;;;;;;50.67;40.33;;;;;6.64;81.10;99308.66;5027244;28;46718;-76
2022/12/02 05:44:27;;;;;;;;;55.33;41.67;;;;;6.60;81.32;99314.00;5028029;28;45481;-76
2022/12/02 05:46:59;;;;;;;;;51.33;39.33;;;;;6.60;81.41;99303.50;5014180;28;45565;-76
2022/12/02 05:49:24;;;;;;;;;52.33;43.00;;;;;6.58;81.18;99305.31;5014066;28;45309;-77
2022/12/02 05:51:58;;;;;;;;;44.67;38.00;;;;;6.53;81.15;99305.41;5014898;28;46167;-76
2022/12/02 05:54:25;;;;;;;;;49.33;42.00;;;;;6.50;81.20;99302.88;5012322;28;45495;-76
2022/12/02 05:56:51;;;;;;;;;47.67;37.67;;;;;6.48;81.33;99314.25;4997992;28;45465;-76
2022/12/02 05:59:19;;;;;;;;;40.00;34.67;;;;;6.44;81.43;99318.69;5041094;28;45359;-76
2022/12/02 06:01:53;;;;;;;;;45.00;38.00;;;;;6.43;81.75;99318.72;5014856;28;45625;-76
2022/12/02 06:04:37;;;;;;;;;44.67;39.67;;;;;6.42;82.05;99314.38;5014795;28;45532;-76
2022/12/02 06:07:10;;;;;;;;;51.33;38.33;;;;;6.42;81.99;99315.22;5014435;28;46169;-77
2022/12/02 06:09:36;;;;;;;;;44.67;38.67;;;;;6.40;81.85;99318.78;5005543;28;45552;-77
2022/12/02 06:12:02;;;;;;;;;42.33;37.33;;;;;6.38;81.88;99318.78;5029809;28;47058;-77
2022/12/02 06:14:32;;;;;;;;;44.33;38.00;;;;;6.39;81.61;99314.44;5007278;28;45367;-76
2022/12/02 06:17:00;;;;;;;;;52.67;39.67;;;;;6.39;81.67;99319.66;5030997;28;45422;-77
2022/12/02 06:19:30;;;;;;;;;38.67;36.67;;;;;6.38;81.22;99324.03;5008909;28;45369;-76
2022/12/02 06:22:00;;;;;;;;;45.00;36.67;;;;;6.38;80.77;99324.03;5013557;28;45595;-76
2022/12/02 06:24:32;;;;;;;;;23.67;19.00;;;;;6.39;80.45;99323.16;5006394;28;45450;-76
2022/12/02 06:27:00;;;;;;;;;43.33;35.00;;;;;6.37;80.70;99322.31;5005344;28;45518;-76
2022/12/02 06:29:27;;;;;;;;;46.00;37.33;;;;;6.35;80.17;99321.50;5020274;28;45730;-76
2022/12/02 06:31:52;;;;;;;;;35.33;32.67;;;;;6.34;80.00;99316.28;5001866;28;46316;-77
2022/12/02 06:34:37;;;;;;;;;44.67;38.00;;;;;6.34;79.52;99314.53;4999096;28;45523;-76
2022/12/02 06:37:23;;;;;;;;;35.00;29.67;;;;;6.34;79.37;99317.16;5005162;28;45384;-77
2022/12/02 06:39:54;;;;;;;;;42.33;35.33;;;;;6.33;79.23;99312.81;5004455;28;45486;-69
2022/12/02 06:42:29;;;;;;;;;42.67;35.67;;;;;6.36;78.88;99315.38;5006023;28;45400;-69
2022/12/02 06:45:05;;;;;;;;;36.00;34.33;;;;;6.41;78.82;99320.50;5005418;28;45636;-68
2022/12/02 06:47:36;;;;;;;;;36.00;28.67;;;;;6.44;78.87;99326.53;5017995;28;45399;-68
2022/12/02 06:50:04;;;;;;;;;41.00;35.00;;;;;6.47;78.71;99323.00;5007196;28;45518;-69
2022/12/02 06:52:43;;;;;;;;;40.67;35.00;;;;;6.51;78.66;99322.06;4999932;28;45676;-68
2022/12/02 06:55:21;;;;;;;;;39.33;33.33;;;;;6.53;78.43;99323.75;5006836;28;45558;-64
2022/12/02 06:57:47;;;;;;;;;40.67;36.33;;;;;6.53;78.27;99323.75;5003707;28;45398;-68
2022/12/02 07:00:12;;;;;;;;;38.00;33.67;;;;;6.53;78.00;99317.66;5002602;28;45654;-69
2022/12/02 07:02:40;;;;;;;;;39.67;32.33;;;;;6.52;77.73;99318.53;5034246;28;48510;-69
2022/12/02 07:05:05;;;;;;;;;35.67;32.67;;;;;6.50;77.12;99322.94;5004744;28;45460;-69
2022/12/02 07:07:33;;;;;;;;;37.00;34.00;;;;;6.49;77.00;99324.69;5005412;28;45609;-68
2022/12/02 07:10:05;;;;;;;;;34.67;30.67;;;;;6.49;76.91;99326.47;5037612;28;45630;-68
2022/12/02 07:12:42;;;;;;;;;36.33;29.33;;;;;6.51;77.06;99330.78;4997284;28;45436;-69
2022/12/02 07:15:19;;;;;;;;;35.00;31.00;;;;;6.54;76.67;99324.59;4997470;28;45504;-68
2022/12/02 07:17:44;;;;;;;;;37.33;32.67;;;;;6.53;76.26;99323.75;5001586;28;45419;-69
2022/12/02 07:20:10;;;;;;;;;44.00;34.00;;;;;6.52;76.51;99329.88;5009642;28;45442;-68
2022/12/02 07:22:40;;;;;;;;;31.00;24.33;;;;;6.54;76.50;99327.19;5045003;28;47449;-69
2022/12/02 07:25:32;;;;;;;;;31.00;30.33;;;;;6.56;76.57;99314.94;5006956;28;45354;-69
2022/12/02 07:27:58;;;;;;;;;39.67;33.33;;;;;6.53;75.98;99322.88;4999193;28;45487;-69
2022/12/02 07:30:40;;;;;;;;;35.33;32.67;;;;;6.53;76.01;99322.88;5027672;28;45553;-68
2022/12/02 07:33:05;;;;;;;;;30.00;24.00;;;;;6.57;75.81;99324.53;5000243;28;46805;-68
2022/12/02 07:35:31;;;;;;;;;40.33;32.67;;;;;6.61;75.77;99328.81;5004817;28;45460;-68
2022/12/02 07:37:57;;;;;;;;;33.00;30.33;;;;;6.62;75.45;99334.03;5003493;28;45421;-69
2022/12/02 07:40:23;;;;;;;;;34.00;32.33;;;;;6.64;75.44;99328.75;5002561;28;45497;-69
2022/12/02 07:42:48;;;;;;;;;36.00;31.67;;;;;6.68;75.25;99324.31;5004613;28;45475;-71
2022/12/02 07:45:16;;;;;;;;;1.67;0.67;;;;;6.69;75.02;99326.06;5005375;28;45459;-69
2022/12/02 07:47:42;;;;;;;;;35.33;31.67;;;;;6.71;75.06;99325.09;4999984;28;45723;-62
2022/12/02 07:50:10;;;;;;;;;38.33;33.00;;;;;6.74;75.11;99324.16;5006538;28;45504;-69
2022/12/02 07:52:35;;;;;;;;;35.67;32.33;;;;;6.77;75.31;99330.22;5008042;28;45507;-71
2022/12/02 07:55:01;;;;;;;;;38.67;33.33;;;;;6.76;74.74;99330.25;5006198;28;45529;-71
2022/12/02 07:57:27;;;;;;;;;35.00;32.67;;;;;6.78;74.78;99334.56;5008487;28;45545;-70
2022/12/02 07:59:52;;;;;;;;;35.33;31.33;;;;;6.80;74.82;99329.28;5008985;28;45450;-72
2022/12/02 08:02:17;;;;;;;;;35.33;33.67;;;;;6.82;74.32;99330.13;5000125;28;46047;-71
2022/12/02 08:04:43;;;;;;;;;37.33;32.00;;;;;6.82;73.97;99324.88;5004238;28;45429;-69
2022/12/02 08:07:08;;;;;;;;;32.00;29.33;;;;;6.82;74.05;99322.25;5003155;28;45473;-70
2022/12/02 08:09:34;;;;;;;;;36.67;32.33;;;;;6.83;73.62;99329.22;5008418;28;45880;-70
2022/12/02 08:11:59;;;;;;;;;35.67;32.00;;;;;6.82;73.48;99328.38;5006835;28;45983;-71
2022/12/02 08:14:24;;;;;;;;;33.50;30.50;;;;;6.81;73.11;99325.78;5011418;28;45398;-71
2022/12/02 08:16:50;;;;;;;;;25.00;25.00;;;;;6.84;73.07;99326.59;5010540;28;45465;-70
2022/12/02 08:19:15;;;;;;;;;31.33;30.00;;;;;6.84;72.82;99331.81;5011638;28;46617;-71
2022/12/02 08:21:41;;;;;;;;;35.33;27.67;;;;;6.86;72.72;99334.41;4994649;28;45935;-70
2022/12/02 08:24:07;;;;;;;;;27.33;25.33;;;;;6.90;72.66;99333.44;5005505;28;45397;-71
2022/12/02 08:26:33;;;;;;;;;28.00;27.00;;;;;6.92;72.26;99334.25;4998998;28;45461;-70
2022/12/02 08:28:59;;;;;;;;;35.00;29.33;;;;;6.95;72.03;99336.81;4996520;28;45490;-71
2022/12/02 08:31:24;;;;;;;;;33.33;27.67;;;;;6.97;71.93;99337.66;4996998;28;45587;-70
2022/12/02 08:33:50;;;;;;;;;32.00;32.00;;;;;7.03;71.84;99336.66;5001976;28;45434;-70
2022/12/02 08:36:16;;;;;;;;;31.00;29.67;;;;;7.08;71.61;99338.25;5028016;28;45456;-71
2022/12/02 08:38:42;;;;;;;;;27.67;23.67;;;;;7.12;71.31;99328.56;5011585;28;45447;-70
2022/12/02 08:41:08;;;;;;;;;33.00;30.00;;;;;7.13;70.89;99325.06;4997400;28;46322;-69
2022/12/02 08:43:34;;;;;;;;;31.00;28.67;;;;;7.17;70.84;99329.34;5008154;28;45449;-70
2022/12/02 08:45:59;;;;;;;;;24.67;24.67;;;;;7.19;70.49;99322.31;4999068;28;45904;-70
2022/12/02 08:48:24;;;;;;;;;35.00;29.67;;;;;7.22;70.93;99324.84;5010642;28;45483;-70
2022/12/02 08:50:50;;;;;;;;;25.33;25.33;;;;;7.22;70.72;99316.97;5006006;28;47241;-70
2022/12/02 08:53:15;;;;;;;;;32.00;27.67;;;;;7.22;70.36;99317.84;5012516;28;45448;-70
2022/12/02 08:55:41;;;;;;;;;36.67;25.00;;;;;7.24;70.53;99313.41;5002805;28;45527;-71
2022/12/02 08:58:06;;;;;;;;;33.33;29.33;;;;;7.29;70.32;99313.31;5008788;28;45443;-70
2022/12/02 09:00:32;;;;;;;;;39.33;32.00;;;;;7.33;70.08;99305.34;5003976;28;45415;-70
2022/12/02 09:02:57;;;;;;;;;34.00;30.67;;;;;7.35;70.12;99308.81;5005213;28;45392;-70
2022/12/02 09:05:23;;;;;;;;;35.67;32.00;;;;;7.39;70.07;99301.69;5002321;28;45857;-72
2022/12/02 09:07:48;;;;;;;;;30.00;24.33;;;;;7.42;69.86;99308.63;5007727;28;45473;-71
2022/12/02 09:10:14;;;;;;;;;30.00;25.33;;;;;7.45;69.69;99308.56;5002430;28;46725;-70
2022/12/02 09:12:39;;;;;;;;;36.00;28.67;;;;;7.47;69.65;99306.75;5009275;28;45377;-70
2022/12/02 09:15:06;;;;;;;;;32.00;30.00;;;;;7.48;69.51;99298.88;5003771;28;45369;-70
2022/12/02 09:17:31;;;;;;;;;34.33;29.00;;;;;7.54;69.74;99303.09;5011548;28;45410;-70
2022/12/02 09:19:57;;;;;;;;;32.00;28.67;;;;;7.57;69.32;99297.75;5007564;28;45553;-71
2022/12/02 09:22:22;;;;;;;;;32.67;27.00;;;;;7.62;69.36;99301.13;5010652;28;45466;-70
2022/12/02 09:24:47;;;;;;;;;33.67;29.33;;;;;7.67;69.06;99299.25;5001097;28;45652;-70
2022/12/02 09:27:13;;;;;;;;;21.67;16.00;;;;;7.70;68.93;99301.81;4998002;28;45435;-71
2022/12/02 09:29:38;;;;;;;;;36.00;33.00;;;;;7.71;68.91;99296.50;4997658;28;46078;-70
2022/12/02 09:32:04;;;;;;;;;24.67;22.67;;;;;7.78;68.75;99288.47;5001006;28;45375;-70
2022/12/02 09:34:29;;;;;;;;;28.67;25.33;;;;;7.83;68.39;99291.84;4997900;28;45385;-70
2022/12/02 09:36:54;;;;;;;;;33.33;32.00;;;;;7.90;68.53;99293.41;5004408;28;45634;-71
2022/12/02 09:39:20;;;;;;;;;31.33;25.00;;;;;7.98;68.40;99297.56;4999974;28;45410;-71
2022/12/02 09:41:45;;;;;;;;;30.33;27.33;;;;;8.05;67.94;99285.97;5005974;28;45409;-71
2022/12/02 09:44:11;;;;;;;;;34.00;28.67;;;;;8.15;67.90;99296.25;4996560;28;45566;-71
2022/12/02 09:46:37;;;;;;;;;30.67;27.67;;;;;8.24;67.90;99295.97;5006367;28;45655;-71
2022/12/02 09:49:03;;;;;;;;;35.00;27.33;;;;;8.29;67.65;99294.09;5009022;28;46604;-71
2022/12/02 09:51:28;;;;;;;;;29.67;28.67;;;;;8.34;67.18;99284.34;5006214;28;45357;-70
2022/12/02 09:53:56;;;;;;;;;31.00;26.33;;;;;8.37;67.13;99292.16;4999937;28;45521;-71
2022/12/02 09:56:22;;;;;;;;;33.00;30.00;;;;;8.39;66.87;99283.28;4999463;28;45534;-70
2022/12/02 09:58:50;;;;;;;;;34.67;30.00;;;;;8.44;66.80;99277.06;5033183;28;45438;-70
2022/12/02 10:01:16;;;;;;;;;27.67;27.00;;;;;8.48;66.79;99279.56;4999965;28;45376;-70
2022/12/02 10:03:44;;;;;;;;;31.00;28.33;;;;;8.57;66.61;99279.28;5006663;28;45537;-70
2022/12/02 10:06:20;;;;;;;;;37.67;34.00;;;;;8.66;66.49;99271.13;5000547;28;45525;-70
2022/12/02 10:08:46;;;;;;;;;27.00;26.00;;;;;8.72;65.97;99262.19;5003926;28;46148;-70
2022/12/02 10:11:32;;;;;;;;;31.33;28.00;;;;;8.78;66.21;99271.66;5008108;28;45493;-71
2022/12/02 10:13:58;;;;;;;;;32.00;29.33;;;;;8.80;65.88;99268.09;5007088;28;45526;-69
2022/12/02 10:16:27;;;;;;;;;33.33;32.33;;;;;8.86;65.35;99259.16;5005252;28;45572;-68
2022/12/02 10:19:00;;;;;;;;;33.33;31.00;;;;;8.94;65.58;99259.75;5003655;28;45602;-71
2022/12/02 10:21:26;;;;;;;;;30.33;25.33;;;;;8.99;65.52;99263.13;4994226;28;45502;-70
2022/12/02 10:23:54;;;;;;;;;27.67;23.33;;;;;9.00;64.68;99262.22;5005158;28;45537;-70
2022/12/02 10:26:19;;;;;;;;;36.67;30.33;;;;;9.00;64.99;99259.59;4996822;28;45390;-71
2022/12/02 10:28:59;;;;;;;;;31.67;31.00;;;;;9.04;64.78;99254.19;5001890;28;46259;-71
2022/12/02 10:31:25;;;;;;;;;33.00;31.00;;;;;9.09;64.69;99254.88;5001558;28;45362;-70
2022/12/02 10:33:53;;;;;;;;;30.00;28.33;;;;;9.14;64.53;99246.84;5005651;28;45584;-71
2022/12/02 10:36:31;;;;;;;;;31.67;27.67;;;;;9.21;64.38;99243.13;5003380;28;45485;-70
2022/12/02 10:39:32;;;;;;;;;30.33;28.33;;;;;9.30;64.26;99240.19;5007981;28;45500;-72
2022/12/02 10:42:03;;;;;;;;;33.00;30.67;;;;;9.36;63.68;99231.22;5003735;28;45379;-71
2022/12/02 10:44:30;;;;;;;;;34.00;32.33;;;;;9.42;63.67;99229.22;5037911;28;45477;-70
2022/12/02 10:47:16;;;;;;;;;35.00;30.67;;;;;9.52;63.63;99231.56;5028468;28;45349;-70
2022/12/02 10:49:45;;;;;;;;;24.00;24.00;;;;;9.59;62.35;99225.16;5009432;28;45568;-70
2022/12/02 10:52:11;;;;;;;;;35.00;30.33;;;;;9.62;63.12;99219.81;5011428;28;45706;-70
2022/12/02 10:54:42;;;;;;;;;28.33;28.00;;;;;9.63;62.97;99225.03;4998958;28;45453;-70
2022/12/02 10:57:14;;;;;;;;;31.00;29.00;;;;;9.66;62.58;99221.44;4998936;28;45394;-70
2022/12/02 10:59:40;;;;;;;;;27.00;24.00;;;;;9.66;62.24;99227.56;5007293;28;46256;-70
2022/12/02 11:02:18;;;;;;;;;22.33;19.33;;;;;9.73;61.97;99221.13;5001376;28;45394;-72
2022/12/02 11:04:44;;;;;;;;;37.00;32.33;;;;;9.78;61.80;99213.94;5006575;28;45439;-70
2022/12/02 11:07:16;;;;;;;;;27.67;23.00;;;;;9.83;62.05;99212.94;5006478;28;45453;-70
2022/12/02 11:09:51;;;;;;;;;22.33;21.33;;;;;9.86;61.58;99215.47;5006316;28;45567;-70
2022/12/02 11:12:33;;;;;;;;;24.33;22.33;;;;;9.87;61.17;99209.28;5030939;28;45373;-70
2022/12/02 11:15:00;;;;;;;;;25.67;22.33;;;;;9.88;60.85;99206.59;5008202;28;45410;-71
2022/12/02 11:17:50;;;;;;;;;22.33;19.67;;;;;9.91;60.85;99210.88;5009566;28;45456;-72
2022/12/02 11:20:30;;;;;;;;;25.33;22.67;;;;;9.90;60.40;99198.63;5022177;28;47420;-70
2022/12/02 11:22:58;;;;;;;;;21.00;20.00;;;;;9.91;60.75;99198.56;5011307;28;45336;-70
2022/12/02 11:25:42;;;;;;;;;22.00;20.25;;;;;9.94;60.05;99198.47;4999386;28;45428;-70
2022/12/02 11:28:31;;;;;;;;;23.67;23.67;;;;;9.97;60.29;99184.31;4996221;28;45569;-71
2022/12/02 11:31:09;;;;;;;;;23.00;20.67;;;;;9.97;60.30;99187.81;4999894;28;46311;-71